sensor_id;sensor_type;location;lat;lon;timestamp;P1;durP1;ratioP1;P2;durP2;ratioP2
30539;SDS011;17321;46.312;4.776;2024-01-15T00:02:07;85.78;;;41.88;;
30539;SDS011;17321;46.312;4.776;2024-01-15T00:04:40;77.97;;;40.83;;
30539;SDS011;17321;46.312;4.776;2024-01-15T00:07:06;89.57;;;43.33;;
30539;SDS011;17321;46.312;4.776;2024-01-15T00:09:32;83.38;;;43.30;;
30539;SDS011;17321;46.312;4.776;2024-01-15T00:11:59;79.90;;;41.83;;
30539;SDS011;17321;46.312;4.776;2024-01-15T00:14:25;77.75;;;41.20;;
30539;SDS011;17321;46.312;4.776;2024-01-15T00:16:51;77.70;;;41.40;;
30539;SDS011;17321;46.312;4.776;2024-01-15T00:19:20;78.10;;;42.22;;
30539;SDS011;17321;46.312;4.776;2024-01-15T00:21:46;84.95;;;43.30;;
30539;SDS011;17321;46.312;4.776;2024-01-15T00:24:13;81.18;;;41.63;;
30539;SDS011;17321;46.312;4.776;2024-01-15T00:26:39;79.50;;;41.78;;
30539;SDS011;17321;46.312;4.776;2024-01-15T00:29:08;80.10;;;43.58;;
30539;SDS011;17321;46.312;4.776;2024-01-15T00:31:34;79.45;;;41.70;;
30539;SDS011;17321;46.312;4.776;2024-01-15T00:34:00;80.65;;;41.00;;
30539;SDS011;17321;46.312;4.776;2024-01-15T00:36:26;84.45;;;43.75;;
30539;SDS011;17321;46.312;4.776;2024-01-15T00:38:52;83.72;;;42.42;;
30539;SDS011;17321;46.312;4.776;2024-01-15T00:41:19;77.40;;;40.20;;
30539;SDS011;17321;46.312;4.776;2024-01-15T00:43:45;81.30;;;42.20;;
30539;SDS011;17321;46.312;4.776;2024-01-15T00:46:11;73.88;;;39.13;;
30539;SDS011;17321;46.312;4.776;2024-01-15T00:48:37;77.15;;;41.75;;
30539;SDS011;17321;46.312;4.776;2024-01-15T00:51:06;78.05;;;41.13;;
30539;SDS011;17321;46.312;4.776;2024-01-15T00:53:32;84.25;;;45.05;;
30539;SDS011;17321;46.312;4.776;2024-01-15T00:55:58;80.47;;;42.15;;
30539;SDS011;17321;46.312;4.776;2024-01-15T00:58:25;79.63;;;41.05;;
30539;SDS011;17321;46.312;4.776;2024-01-15T01:00:51;84.40;;;43.08;;
30539;SDS011;17321;46.312;4.776;2024-01-15T01:03:17;80.43;;;41.88;;
30539;SDS011;17321;46.312;4.776;2024-01-15T01:05:43;87.90;;;44.10;;
30539;SDS011;17321;46.312;4.776;2024-01-15T01:08:09;83.82;;;43.08;;
30539;SDS011;17321;46.312;4.776;2024-01-15T01:10:35;79.38;;;42.55;;
30539;SDS011;17321;46.312;4.776;2024-01-15T01:13:02;84.95;;;43.55;;
30539;SDS011;17321;46.312;4.776;2024-01-15T01:15:28;82.15;;;41.55;;
30539;SDS011;17321;46.312;4.776;2024-01-15T01:17:54;83.13;;;43.65;;
30539;SDS011;17321;46.312;4.776;2024-01-15T01:20:20;88.40;;;44.92;;
30539;SDS011;17321;46.312;4.776;2024-01-15T01:22:46;82.22;;;43.28;;
30539;SDS011;17321;46.312;4.776;2024-01-15T01:25:12;74.85;;;42.80;;
30539;SDS011;17321;46.312;4.776;2024-01-15T01:27:38;85.32;;;43.95;;
30539;SDS011;17321;46.312;4.776;2024-01-15T01:30:04;76.43;;;41.15;;
30539;SDS011;17321;46.312;4.776;2024-01-15T01:32:30;89.20;;;44.22;;
30539;SDS011;17321;46.312;4.776;2024-01-15T01:34:56;76.63;;;40.88;;
30539;SDS011;17321;46.312;4.776;2024-01-15T01:37:22;83.60;;;41.85;;
30539;SDS011;17321;46.312;4.776;2024-01-15T01:39:48;86.15;;;43.45;;
30539;SDS011;17321;46.312;4.776;2024-01-15T01:42:14;86.30;;;43.92;;
30539;SDS011;17321;46.312;4.776;2024-01-15T01:44:41;85.85;;;44.13;;
30539;SDS011;17321;46.312;4.776;2024-01-15T01:47:07;80.93;;;42.97;;
30539;SDS011;17321;46.312;4.776;2024-01-15T01:49:33;87.03;;;44.20;;
30539;SDS011;17321;46.312;4.776;2024-01-15T01:52:01;86.78;;;43.50;;
30539;SDS011;17321;46.312;4.776;2024-01-15T01:54:28;80.35;;;42.47;;
30539;SDS011;17321;46.312;4.776;2024-01-15T01:56:54;78.97;;;41.70;;
30539;SDS011;17321;46.312;4.776;2024-01-15T01:59:21;81.28;;;41.85;;
30539;SDS011;17321;46.312;4.776;2024-01-15T02:01:48;84.30;;;43.80;;
30539;SDS011;17321;46.312;4.776;2024-01-15T02:04:14;83.47;;;44.72;;
30539;SDS011;17321;46.312;4.776;2024-01-15T02:06:41;87.05;;;43.65;;
30539;SDS011;17321;46.312;4.776;2024-01-15T02:09:07;80.97;;;43.13;;
30539;SDS011;17321;46.312;4.776;2024-01-15T02:11:34;84.68;;;43.55;;
30539;SDS011;17321;46.312;4.776;2024-01-15T02:14:01;84.22;;;41.85;;
30539;SDS011;17321;46.312;4.776;2024-01-15T02:16:27;87.80;;;45.92;;
30539;SDS011;17321;46.312;4.776;2024-01-15T02:18:53;92.63;;;45.65;;
30539;SDS011;17321;46.312;4.776;2024-01-15T02:21:19;80.22;;;42.63;;
30539;SDS011;17321;46.312;4.776;2024-01-15T02:23:45;89.82;;;43.78;;
30539;SDS011;17321;46.312;4.776;2024-01-15T02:26:11;83.78;;;44.65;;
30539;SDS011;17321;46.312;4.776;2024-01-15T02:28:38;82.95;;;42.53;;
30539;SDS011;17321;46.312;4.776;2024-01-15T02:31:06;87.15;;;43.75;;
30539;SDS011;17321;46.312;4.776;2024-01-15T02:33:32;78.03;;;40.90;;
30539;SDS011;17321;46.312;4.776;2024-01-15T02:35:58;77.85;;;40.83;;
30539;SDS011;17321;46.312;4.776;2024-01-15T02:38:24;80.13;;;40.33;;
30539;SDS011;17321;46.312;4.776;2024-01-15T02:40:50;78.38;;;41.65;;
30539;SDS011;17321;46.312;4.776;2024-01-15T02:43:16;87.93;;;44.08;;
30539;SDS011;17321;46.312;4.776;2024-01-15T02:45:44;77.25;;;39.75;;
30539;SDS011;17321;46.312;4.776;2024-01-15T02:48:10;84.10;;;43.25;;
30539;SDS011;17321;46.312;4.776;2024-01-15T02:50:36;78.40;;;41.22;;
30539;SDS011;17321;46.312;4.776;2024-01-15T02:53:02;69.78;;;37.55;;
30539;SDS011;17321;46.312;4.776;2024-01-15T02:55:28;80.60;;;40.65;;
30539;SDS011;17321;46.312;4.776;2024-01-15T02:57:54;75.72;;;40.85;;
30539;SDS011;17321;46.312;4.776;2024-01-15T03:00:20;78.25;;;39.15;;
30539;SDS011;17321;46.312;4.776;2024-01-15T03:02:47;85.28;;;44.17;;
30539;SDS011;17321;46.312;4.776;2024-01-15T03:05:13;80.95;;;41.25;;
30539;SDS011;17321;46.312;4.776;2024-01-15T03:07:39;71.05;;;39.03;;
30539;SDS011;17321;46.312;4.776;2024-01-15T03:10:05;73.45;;;37.67;;
30539;SDS011;17321;46.312;4.776;2024-01-15T03:12:32;75.57;;;41.33;;
30539;SDS011;17321;46.312;4.776;2024-01-15T03:14:58;82.05;;;40.60;;
30539;SDS011;17321;46.312;4.776;2024-01-15T03:17:24;70.93;;;38.75;;
30539;SDS011;17321;46.312;4.776;2024-01-15T03:19:50;68.63;;;36.47;;
30539;SDS011;17321;46.312;4.776;2024-01-15T03:22:16;70.97;;;38.40;;
30539;SDS011;17321;46.312;4.776;2024-01-15T03:24:43;72.00;;;38.83;;
30539;SDS011;17321;46.312;4.776;2024-01-15T03:27:09;68.40;;;35.17;;
30539;SDS011;17321;46.312;4.776;2024-01-15T03:29:35;62.42;;;34.67;;
30539;SDS011;17321;46.312;4.776;2024-01-15T03:32:01;66.93;;;36.78;;
30539;SDS011;17321;46.312;4.776;2024-01-15T03:34:27;69.30;;;37.83;;
30539;SDS011;17321;46.312;4.776;2024-01-15T03:36:53;60.47;;;34.20;;
30539;SDS011;17321;46.312;4.776;2024-01-15T03:39:19;64.95;;;35.17;;
30539;SDS011;17321;46.312;4.776;2024-01-15T03:41:45;66.38;;;35.92;;
30539;SDS011;17321;46.312;4.776;2024-01-15T03:44:11;67.45;;;37.25;;
30539;SDS011;17321;46.312;4.776;2024-01-15T03:46:37;79.30;;;43.42;;
30539;SDS011;17321;46.312;4.776;2024-01-15T03:49:03;79.53;;;43.25;;
30539;SDS011;17321;46.312;4.776;2024-01-15T03:51:29;78.43;;;42.05;;
30539;SDS011;17321;46.312;4.776;2024-01-15T03:53:54;75.38;;;38.72;;
30539;SDS011;17321;46.312;4.776;2024-01-15T03:56:20;82.68;;;41.15;;
30539;SDS011;17321;46.312;4.776;2024-01-15T03:58:46;77.30;;;41.35;;
30539;SDS011;17321;46.312;4.776;2024-01-15T04:01:12;65.43;;;35.55;;
30539;SDS011;17321;46.312;4.776;2024-01-15T04:03:39;69.97;;;36.75;;
30539;SDS011;17321;46.312;4.776;2024-01-15T04:06:05;66.03;;;34.63;;
30539;SDS011;17321;46.312;4.776;2024-01-15T04:08:31;64.90;;;34.22;;
30539;SDS011;17321;46.312;4.776;2024-01-15T04:10:57;56.38;;;33.17;;
30539;SDS011;17321;46.312;4.776;2024-01-15T04:13:23;65.60;;;35.80;;
30539;SDS011;17321;46.312;4.776;2024-01-15T04:15:49;62.63;;;34.65;;
30539;SDS011;17321;46.312;4.776;2024-01-15T04:18:15;59.90;;;31.35;;
30539;SDS011;17321;46.312;4.776;2024-01-15T04:20:43;54.22;;;29.25;;
30539;SDS011;17321;46.312;4.776;2024-01-15T04:23:09;49.83;;;29.65;;
30539;SDS011;17321;46.312;4.776;2024-01-15T04:25:35;44.80;;;26.83;;
30539;SDS011;17321;46.312;4.776;2024-01-15T04:28:01;49.58;;;27.67;;
30539;SDS011;17321;46.312;4.776;2024-01-15T04:30:27;49.65;;;27.80;;
30539;SDS011;17321;46.312;4.776;2024-01-15T04:32:53;47.72;;;29.33;;
30539;SDS011;17321;46.312;4.776;2024-01-15T04:35:19;49.58;;;27.55;;
30539;SDS011;17321;46.312;4.776;2024-01-15T04:37:45;50.00;;;28.02;;
30539;SDS011;17321;46.312;4.776;2024-01-15T04:40:11;50.47;;;28.98;;
30539;SDS011;17321;46.312;4.776;2024-01-15T04:42:37;52.80;;;30.05;;
30539;SDS011;17321;46.312;4.776;2024-01-15T04:45:03;47.08;;;28.25;;
30539;SDS011;17321;46.312;4.776;2024-01-15T04:47:29;44.67;;;26.48;;
30539;SDS011;17321;46.312;4.776;2024-01-15T04:49:55;39.72;;;25.15;;
30539;SDS011;17321;46.312;4.776;2024-01-15T04:52:21;42.05;;;24.60;;
30539;SDS011;17321;46.312;4.776;2024-01-15T04:54:48;37.28;;;24.85;;
30539;SDS011;17321;46.312;4.776;2024-01-15T04:57:14;41.58;;;24.85;;
30539;SDS011;17321;46.312;4.776;2024-01-15T04:59:40;37.05;;;23.60;;
30539;SDS011;17321;46.312;4.776;2024-01-15T05:02:06;38.85;;;24.55;;
30539;SDS011;17321;46.312;4.776;2024-01-15T05:04:32;41.47;;;24.52;;
30539;SDS011;17321;46.312;4.776;2024-01-15T05:06:59;42.03;;;24.80;;
30539;SDS011;17321;46.312;4.776;2024-01-15T05:09:25;39.17;;;25.30;;
30539;SDS011;17321;46.312;4.776;2024-01-15T05:11:51;41.13;;;25.75;;
30539;SDS011;17321;46.312;4.776;2024-01-15T05:14:16;44.35;;;26.27;;
30539;SDS011;17321;46.312;4.776;2024-01-15T05:16:48;46.05;;;26.70;;
30539;SDS011;17321;46.312;4.776;2024-01-15T05:19:15;43.45;;;25.63;;
30539;SDS011;17321;46.312;4.776;2024-01-15T05:21:41;38.70;;;24.77;;
30539;SDS011;17321;46.312;4.776;2024-01-15T05:24:07;40.25;;;25.05;;
30539;SDS011;17321;46.312;4.776;2024-01-15T05:26:34;44.88;;;25.65;;
30539;SDS011;17321;46.312;4.776;2024-01-15T05:29:00;39.42;;;25.75;;
30539;SDS011;17321;46.312;4.776;2024-01-15T05:31:26;42.75;;;25.25;;
30539;SDS011;17321;46.312;4.776;2024-01-15T05:33:52;40.42;;;24.05;;
30539;SDS011;17321;46.312;4.776;2024-01-15T05:36:18;41.22;;;25.58;;
30539;SDS011;17321;46.312;4.776;2024-01-15T05:38:44;42.13;;;25.38;;
30539;SDS011;17321;46.312;4.776;2024-01-15T05:41:10;44.63;;;27.23;;
30539;SDS011;17321;46.312;4.776;2024-01-15T05:43:36;47.58;;;26.63;;
30539;SDS011;17321;46.312;4.776;2024-01-15T05:46:02;40.90;;;26.10;;
30539;SDS011;17321;46.312;4.776;2024-01-15T05:48:28;44.45;;;26.60;;
30539;SDS011;17321;46.312;4.776;2024-01-15T05:50:54;43.65;;;27.05;;
30539;SDS011;17321;46.312;4.776;2024-01-15T05:53:20;42.60;;;25.65;;
30539;SDS011;17321;46.312;4.776;2024-01-15T05:55:46;39.47;;;26.08;;
30539;SDS011;17321;46.312;4.776;2024-01-15T05:58:12;43.45;;;25.40;;
30539;SDS011;17321;46.312;4.776;2024-01-15T06:00:38;40.63;;;24.65;;
30539;SDS011;17321;46.312;4.776;2024-01-15T06:03:04;46.38;;;25.23;;
30539;SDS011;17321;46.312;4.776;2024-01-15T06:05:30;44.75;;;25.80;;
30539;SDS011;17321;46.312;4.776;2024-01-15T06:07:56;40.08;;;25.45;;
30539;SDS011;17321;46.312;4.776;2024-01-15T06:10:22;46.72;;;26.95;;
30539;SDS011;17321;46.312;4.776;2024-01-15T06:12:48;41.30;;;25.35;;
30539;SDS011;17321;46.312;4.776;2024-01-15T06:15:14;51.88;;;29.73;;
30539;SDS011;17321;46.312;4.776;2024-01-15T06:17:40;51.35;;;29.27;;
30539;SDS011;17321;46.312;4.776;2024-01-15T06:20:07;42.47;;;25.92;;
30539;SDS011;17321;46.312;4.776;2024-01-15T06:22:34;41.38;;;25.48;;
30539;SDS011;17321;46.312;4.776;2024-01-15T06:25:01;40.63;;;25.00;;
30539;SDS011;17321;46.312;4.776;2024-01-15T06:27:28;52.67;;;29.15;;
30539;SDS011;17321;46.312;4.776;2024-01-15T06:29:54;55.45;;;32.78;;
30539;SDS011;17321;46.312;4.776;2024-01-15T06:32:21;47.03;;;28.00;;
30539;SDS011;17321;46.312;4.776;2024-01-15T06:34:47;43.92;;;26.25;;
30539;SDS011;17321;46.312;4.776;2024-01-15T06:37:13;46.22;;;26.77;;
30539;SDS011;17321;46.312;4.776;2024-01-15T06:39:39;46.03;;;26.70;;
30539;SDS011;17321;46.312;4.776;2024-01-15T06:42:05;47.15;;;28.05;;
30539;SDS011;17321;46.312;4.776;2024-01-15T06:44:31;49.38;;;28.70;;
30539;SDS011;17321;46.312;4.776;2024-01-15T06:46:57;47.35;;;27.40;;
30539;SDS011;17321;46.312;4.776;2024-01-15T06:49:27;48.72;;;29.10;;
30539;SDS011;17321;46.312;4.776;2024-01-15T06:51:53;56.17;;;31.30;;
30539;SDS011;17321;46.312;4.776;2024-01-15T06:54:19;44.95;;;25.88;;
30539;SDS011;17321;46.312;4.776;2024-01-15T06:56:45;45.80;;;27.70;;
30539;SDS011;17321;46.312;4.776;2024-01-15T06:59:11;44.20;;;25.67;;
30539;SDS011;17321;46.312;4.776;2024-01-15T07:01:37;43.80;;;26.52;;
30539;SDS011;17321;46.312;4.776;2024-01-15T07:04:03;44.47;;;26.00;;
30539;SDS011;17321;46.312;4.776;2024-01-15T07:06:29;45.15;;;26.02;;
30539;SDS011;17321;46.312;4.776;2024-01-15T07:08:55;46.63;;;26.92;;
30539;SDS011;17321;46.312;4.776;2024-01-15T07:11:22;44.83;;;25.85;;
30539;SDS011;17321;46.312;4.776;2024-01-15T07:13:48;42.72;;;25.20;;
30539;SDS011;17321;46.312;4.776;2024-01-15T07:16:14;43.90;;;24.45;;
30539;SDS011;17321;46.312;4.776;2024-01-15T07:18:40;42.88;;;25.90;;
30539;SDS011;17321;46.312;4.776;2024-01-15T07:21:06;42.85;;;25.02;;
30539;SDS011;17321;46.312;4.776;2024-01-15T07:23:32;43.40;;;25.85;;
30539;SDS011;17321;46.312;4.776;2024-01-15T07:25:58;42.13;;;25.17;;
30539;SDS011;17321;46.312;4.776;2024-01-15T07:28:24;44.05;;;25.80;;
30539;SDS011;17321;46.312;4.776;2024-01-15T07:30:51;43.42;;;25.25;;
30539;SDS011;17321;46.312;4.776;2024-01-15T07:33:17;42.13;;;26.23;;
30539;SDS011;17321;46.312;4.776;2024-01-15T07:35:43;41.45;;;24.88;;
30539;SDS011;17321;46.312;4.776;2024-01-15T07:38:09;43.85;;;25.52;;
30539;SDS011;17321;46.312;4.776;2024-01-15T07:40:36;42.78;;;25.67;;
30539;SDS011;17321;46.312;4.776;2024-01-15T07:43:02;39.78;;;25.10;;
30539;SDS011;17321;46.312;4.776;2024-01-15T07:45:29;40.42;;;25.63;;
30539;SDS011;17321;46.312;4.776;2024-01-15T07:47:55;36.88;;;24.42;;
30539;SDS011;17321;46.312;4.776;2024-01-15T07:50:21;38.85;;;24.73;;
30539;SDS011;17321;46.312;4.776;2024-01-15T07:52:47;41.22;;;24.20;;
30539;SDS011;17321;46.312;4.776;2024-01-15T07:55:13;40.25;;;25.50;;
30539;SDS011;17321;46.312;4.776;2024-01-15T07:57:39;41.13;;;24.98;;
30539;SDS011;17321;46.312;4.776;2024-01-15T08:00:06;35.35;;;21.60;;
30539;SDS011;17321;46.312;4.776;2024-01-15T08:02:34;44.28;;;25.60;;
30539;SDS011;17321;46.312;4.776;2024-01-15T08:05:00;45.90;;;27.42;;
30539;SDS011;17321;46.312;4.776;2024-01-15T08:07:26;44.95;;;27.60;;
30539;SDS011;17321;46.312;4.776;2024-01-15T08:09:52;44.30;;;26.70;;
30539;SDS011;17321;46.312;4.776;2024-01-15T08:12:18;44.67;;;26.98;;
30539;SDS011;17321;46.312;4.776;2024-01-15T08:14:44;47.10;;;29.80;;
30539;SDS011;17321;46.312;4.776;2024-01-15T08:17:10;52.35;;;29.58;;
30539;SDS011;17321;46.312;4.776;2024-01-15T08:19:37;52.58;;;31.08;;
30539;SDS011;17321;46.312;4.776;2024-01-15T08:22:06;46.50;;;29.00;;
30539;SDS011;17321;46.312;4.776;2024-01-15T08:24:32;50.65;;;30.75;;
30539;SDS011;17321;46.312;4.776;2024-01-15T08:26:58;46.17;;;28.75;;
30539;SDS011;17321;46.312;4.776;2024-01-15T08:29:24;49.72;;;30.20;;
30539;SDS011;17321;46.312;4.776;2024-01-15T08:31:50;48.80;;;29.02;;
30539;SDS011;17321;46.312;4.776;2024-01-15T08:34:16;44.40;;;25.95;;
30539;SDS011;17321;46.312;4.776;2024-01-15T08:36:42;49.85;;;29.00;;
30539;SDS011;17321;46.312;4.776;2024-01-15T08:39:08;53.33;;;30.35;;
30539;SDS011;17321;46.312;4.776;2024-01-15T08:41:34;48.47;;;29.42;;
30539;SDS011;17321;46.312;4.776;2024-01-15T08:44:00;53.92;;;31.60;;
30539;SDS011;17321;46.312;4.776;2024-01-15T08:46:27;52.83;;;32.03;;
30539;SDS011;17321;46.312;4.776;2024-01-15T08:48:53;52.42;;;31.35;;
30539;SDS011;17321;46.312;4.776;2024-01-15T08:51:19;51.45;;;32.08;;
30539;SDS011;17321;46.312;4.776;2024-01-15T08:53:45;59.55;;;33.78;;
30539;SDS011;17321;46.312;4.776;2024-01-15T08:56:11;58.33;;;33.00;;
30539;SDS011;17321;46.312;4.776;2024-01-15T08:58:37;59.72;;;33.85;;
30539;SDS011;17321;46.312;4.776;2024-01-15T09:01:03;50.47;;;31.23;;
30539;SDS011;17321;46.312;4.776;2024-01-15T09:03:30;54.72;;;32.50;;
30539;SDS011;17321;46.312;4.776;2024-01-15T09:05:57;57.97;;;30.98;;
30539;SDS011;17321;46.312;4.776;2024-01-15T09:08:23;61.72;;;33.45;;
30539;SDS011;17321;46.312;4.776;2024-01-15T09:10:49;63.63;;;34.22;;
30539;SDS011;17321;46.312;4.776;2024-01-15T09:13:15;59.22;;;34.97;;
30539;SDS011;17321;46.312;4.776;2024-01-15T09:15:41;60.45;;;34.78;;
30539;SDS011;17321;46.312;4.776;2024-01-15T09:18:08;58.85;;;34.33;;
30539;SDS011;17321;46.312;4.776;2024-01-15T09:20:35;68.03;;;37.28;;
30539;SDS011;17321;46.312;4.776;2024-01-15T09:23:01;54.38;;;32.90;;
30539;SDS011;17321;46.312;4.776;2024-01-15T09:25:27;58.50;;;34.30;;
30539;SDS011;17321;46.312;4.776;2024-01-15T09:27:54;60.13;;;34.42;;
30539;SDS011;17321;46.312;4.776;2024-01-15T09:30:20;59.40;;;35.50;;
30539;SDS011;17321;46.312;4.776;2024-01-15T09:32:46;57.20;;;33.90;;
30539;SDS011;17321;46.312;4.776;2024-01-15T09:35:12;58.83;;;34.03;;
30539;SDS011;17321;46.312;4.776;2024-01-15T09:37:38;54.25;;;31.02;;
30539;SDS011;17321;46.312;4.776;2024-01-15T09:40:05;57.53;;;34.45;;
30539;SDS011;17321;46.312;4.776;2024-01-15T09:42:31;65.43;;;36.28;;
30539;SDS011;17321;46.312;4.776;2024-01-15T09:44:58;60.03;;;34.17;;
30539;SDS011;17321;46.312;4.776;2024-01-15T09:47:24;55.13;;;32.97;;
30539;SDS011;17321;46.312;4.776;2024-01-15T09:49:50;68.97;;;37.45;;
30539;SDS011;17321;46.312;4.776;2024-01-15T09:52:16;66.97;;;36.50;;
30539;SDS011;17321;46.312;4.776;2024-01-15T09:54:45;58.78;;;35.90;;
30539;SDS011;17321;46.312;4.776;2024-01-15T09:57:12;63.03;;;35.60;;
30539;SDS011;17321;46.312;4.776;2024-01-15T09:59:38;56.00;;;32.10;;
30539;SDS011;17321;46.312;4.776;2024-01-15T10:02:05;50.90;;;30.23;;
30539;SDS011;17321;46.312;4.776;2024-01-15T10:04:32;63.60;;;35.53;;
30539;SDS011;17321;46.312;4.776;2024-01-15T10:06:58;51.53;;;33.15;;
30539;SDS011;17321;46.312;4.776;2024-01-15T10:09:26;70.57;;;39.95;;
30539;SDS011;17321;46.312;4.776;2024-01-15T10:11:52;56.53;;;33.25;;
30539;SDS011;17321;46.312;4.776;2024-01-15T10:14:19;52.03;;;32.70;;
30539;SDS011;17321;46.312;4.776;2024-01-15T10:16:45;50.35;;;29.73;;
30539;SDS011;17321;46.312;4.776;2024-01-15T10:19:11;49.28;;;32.25;;
30539;SDS011;17321;46.312;4.776;2024-01-15T10:21:37;54.40;;;30.75;;
30539;SDS011;17321;46.312;4.776;2024-01-15T10:24:04;46.20;;;28.83;;
30539;SDS011;17321;46.312;4.776;2024-01-15T10:26:30;53.13;;;29.73;;
30539;SDS011;17321;46.312;4.776;2024-01-15T10:28:58;45.10;;;27.80;;
30539;SDS011;17321;46.312;4.776;2024-01-15T10:31:25;39.10;;;26.80;;
30539;SDS011;17321;46.312;4.776;2024-01-15T10:33:51;40.22;;;25.80;;
30539;SDS011;17321;46.312;4.776;2024-01-15T10:36:17;36.90;;;24.80;;
30539;SDS011;17321;46.312;4.776;2024-01-15T10:38:43;37.97;;;24.27;;
30539;SDS011;17321;46.312;4.776;2024-01-15T10:41:10;34.45;;;24.10;;
30539;SDS011;17321;46.312;4.776;2024-01-15T10:43:36;36.13;;;22.73;;
30539;SDS011;17321;46.312;4.776;2024-01-15T10:46:02;38.25;;;24.30;;
30539;SDS011;17321;46.312;4.776;2024-01-15T10:48:28;34.03;;;22.05;;
30539;SDS011;17321;46.312;4.776;2024-01-15T10:50:56;49.83;;;27.20;;
30539;SDS011;17321;46.312;4.776;2024-01-15T10:53:22;38.67;;;25.65;;
30539;SDS011;17321;46.312;4.776;2024-01-15T10:55:50;49.65;;;25.98;;
30539;SDS011;17321;46.312;4.776;2024-01-15T10:58:16;40.65;;;25.02;;
30539;SDS011;17321;46.312;4.776;2024-01-15T11:00:42;31.08;;;20.40;;
30539;SDS011;17321;46.312;4.776;2024-01-15T11:03:08;35.63;;;20.10;;
30539;SDS011;17321;46.312;4.776;2024-01-15T11:05:41;29.17;;;17.10;;
30539;SDS011;17321;46.312;4.776;2024-01-15T11:08:08;22.20;;;16.65;;
30539;SDS011;17321;46.312;4.776;2024-01-15T11:11:07;33.78;;;20.17;;
30539;SDS011;17321;46.312;4.776;2024-01-15T11:15:59;30.13;;;19.63;;
30539;SDS011;17321;46.312;4.776;2024-01-15T11:18:26;31.17;;;19.23;;
30539;SDS011;17321;46.312;4.776;2024-01-15T11:28:56;26.42;;;17.88;;
30539;SDS011;17321;46.312;4.776;2024-01-15T11:31:27;27.52;;;18.30;;
30539;SDS011;17321;46.312;4.776;2024-01-15T11:33:53;31.73;;;18.98;;
30539;SDS011;17321;46.312;4.776;2024-01-15T11:36:21;29.65;;;17.52;;
30539;SDS011;17321;46.312;4.776;2024-01-15T11:38:47;27.27;;;19.33;;
30539;SDS011;17321;46.312;4.776;2024-01-15T11:41:15;27.77;;;19.50;;
30539;SDS011;17321;46.312;4.776;2024-01-15T11:43:41;30.75;;;19.40;;
30539;SDS011;17321;46.312;4.776;2024-01-15T11:46:11;33.03;;;21.17;;
30539;SDS011;17321;46.312;4.776;2024-01-15T11:48:43;29.70;;;19.27;;
30539;SDS011;17321;46.312;4.776;2024-01-15T11:51:12;30.63;;;19.38;;
30539;SDS011;17321;46.312;4.776;2024-01-15T11:53:45;25.75;;;16.70;;
30539;SDS011;17321;46.312;4.776;2024-01-15T11:56:16;24.73;;;17.42;;
30539;SDS011;17321;46.312;4.776;2024-01-15T12:01:08;18.42;;;13.15;;
30539;SDS011;17321;46.312;4.776;2024-01-15T12:03:34;13.52;;;10.25;;
30539;SDS011;17321;46.312;4.776;2024-01-15T12:06:01;15.40;;;8.95;;
30539;SDS011;17321;46.312;4.776;2024-01-15T12:08:27;15.80;;;11.50;;
30539;SDS011;17321;46.312;4.776;2024-01-15T12:10:53;16.38;;;12.48;;
30539;SDS011;17321;46.312;4.776;2024-01-15T12:13:19;20.65;;;13.35;;
30539;SDS011;17321;46.312;4.776;2024-01-15T12:15:46;15.05;;;10.73;;
30539;SDS011;17321;46.312;4.776;2024-01-15T12:18:13;12.27;;;8.93;;
30539;SDS011;17321;46.312;4.776;2024-01-15T12:20:39;10.63;;;8.27;;
30539;SDS011;17321;46.312;4.776;2024-01-15T12:23:06;11.75;;;8.25;;
30539;SDS011;17321;46.312;4.776;2024-01-15T12:25:32;10.60;;;8.48;;
30539;SDS011;17321;46.312;4.776;2024-01-15T12:27:59;11.90;;;8.65;;
30539;SDS011;17321;46.312;4.776;2024-01-15T12:30:28;11.20;;;8.52;;
30539;SDS011;17321;46.312;4.776;2024-01-15T12:32:56;10.48;;;8.77;;
30539;SDS011;17321;46.312;4.776;2024-01-15T12:35:23;12.40;;;8.55;;
30539;SDS011;17321;46.312;4.776;2024-01-15T12:37:51;11.05;;;6.97;;
30539;SDS011;17321;46.312;4.776;2024-01-15T12:40:20;10.65;;;7.00;;
30539;SDS011;17321;46.312;4.776;2024-01-15T12:42:46;9.93;;;7.05;;
30539;SDS011;17321;46.312;4.776;2024-01-15T12:45:12;9.07;;;7.28;;
30539;SDS011;17321;46.312;4.776;2024-01-15T12:47:42;9.35;;;6.65;;
30539;SDS011;17321;46.312;4.776;2024-01-15T12:50:11;10.38;;;7.10;;
30539;SDS011;17321;46.312;4.776;2024-01-15T12:52:37;8.20;;;6.35;;
30539;SDS011;17321;46.312;4.776;2024-01-15T12:55:04;9.05;;;6.57;;
30539;SDS011;17321;46.312;4.776;2024-01-15T12:57:31;10.48;;;7.22;;
30539;SDS011;17321;46.312;4.776;2024-01-15T12:59:57;10.68;;;6.78;;
30539;SDS011;17321;46.312;4.776;2024-01-15T13:02:23;8.23;;;6.15;;
30539;SDS011;17321;46.312;4.776;2024-01-15T13:04:49;8.50;;;6.78;;
30539;SDS011;17321;46.312;4.776;2024-01-15T13:07:15;10.25;;;6.80;;
30539;SDS011;17321;46.312;4.776;2024-01-15T13:09:41;9.73;;;7.35;;
30539;SDS011;17321;46.312;4.776;2024-01-15T13:12:07;10.20;;;7.72;;
30539;SDS011;17321;46.312;4.776;2024-01-15T13:14:33;9.20;;;7.60;;
30539;SDS011;17321;46.312;4.776;2024-01-15T13:16:59;9.40;;;6.10;;
30539;SDS011;17321;46.312;4.776;2024-01-15T13:19:25;9.18;;;7.07;;
30539;SDS011;17321;46.312;4.776;2024-01-15T13:21:52;9.05;;;6.40;;
30539;SDS011;17321;46.312;4.776;2024-01-15T13:24:18;6.20;;;5.57;;
30539;SDS011;17321;46.312;4.776;2024-01-15T13:26:44;10.30;;;5.85;;
30539;SDS011;17321;46.312;4.776;2024-01-15T13:29:10;7.43;;;5.15;;
30539;SDS011;17321;46.312;4.776;2024-01-15T13:31:36;7.70;;;5.75;;
30539;SDS011;17321;46.312;4.776;2024-01-15T13:34:03;8.60;;;6.22;;
30539;SDS011;17321;46.312;4.776;2024-01-15T13:36:29;20.77;;;8.20;;
30539;SDS011;17321;46.312;4.776;2024-01-15T13:38:55;12.32;;;9.00;;
30539;SDS011;17321;46.312;4.776;2024-01-15T13:41:21;8.57;;;6.95;;
30539;SDS011;17321;46.312;4.776;2024-01-15T13:43:50;12.32;;;7.78;;
30539;SDS011;17321;46.312;4.776;2024-01-15T13:46:17;8.70;;;7.15;;
30539;SDS011;17321;46.312;4.776;2024-01-15T13:48:43;7.55;;;6.43;;
30539;SDS011;17321;46.312;4.776;2024-01-15T13:51:09;4.93;;;4.43;;
30539;SDS011;17321;46.312;4.776;2024-01-15T13:53:37;6.57;;;5.03;;
30539;SDS011;17321;46.312;4.776;2024-01-15T13:56:04;8.73;;;6.18;;
30539;SDS011;17321;46.312;4.776;2024-01-15T13:58:30;4.18;;;3.70;;
30539;SDS011;17321;46.312;4.776;2024-01-15T14:00:56;5.68;;;4.15;;
30539;SDS011;17321;46.312;4.776;2024-01-15T14:03:22;6.10;;;4.90;;
30539;SDS011;17321;46.312;4.776;2024-01-15T14:05:48;9.30;;;4.93;;
30539;SDS011;17321;46.312;4.776;2024-01-15T14:08:16;6.55;;;4.65;;
30539;SDS011;17321;46.312;4.776;2024-01-15T14:10:42;6.78;;;5.13;;
30539;SDS011;17321;46.312;4.776;2024-01-15T14:13:08;5.38;;;4.88;;
30539;SDS011;17321;46.312;4.776;2024-01-15T14:15:34;6.90;;;5.75;;
30539;SDS011;17321;46.312;4.776;2024-01-15T14:18:00;7.20;;;5.22;;
30539;SDS011;17321;46.312;4.776;2024-01-15T14:20:26;5.97;;;4.97;;
30539;SDS011;17321;46.312;4.776;2024-01-15T14:22:52;5.72;;;4.60;;
30539;SDS011;17321;46.312;4.776;2024-01-15T14:25:19;8.10;;;5.18;;
30539;SDS011;17321;46.312;4.776;2024-01-15T14:27:45;6.50;;;4.95;;
30539;SDS011;17321;46.312;4.776;2024-01-15T14:30:11;7.05;;;4.97;;
30539;SDS011;17321;46.312;4.776;2024-01-15T14:32:38;6.25;;;4.90;;
30539;SDS011;17321;46.312;4.776;2024-01-15T14:35:05;7.53;;;5.28;;